createdAt,value
2023-02-24T00:02:05.125Z,71.10
2023-02-24T00:04:40.698Z,66.18
2023-02-24T00:07:12.939Z,67.03
2023-02-24T00:09:40.948Z,67.85
2023-02-24T00:12:13.323Z,67.75
2023-02-24T00:14:44.364Z,67.75
2023-02-24T00:17:16.704Z,66.28
2023-02-24T00:19:46.675Z,71.30
2023-02-24T00:22:14.636Z,65.13
2023-02-24T00:24:42.504Z,67.97
2023-02-24T00:27:13.586Z,71.57
2023-02-24T00:29:42.350Z,66.63
2023-02-24T00:32:13.712Z,66.47
2023-02-24T00:34:43.416Z,65.72
2023-02-24T00:37:12.333Z,64.50
2023-02-24T00:39:41.982Z,65.32
2023-02-24T00:42:12.211Z,64.03
2023-02-24T00:44:44.494Z,65.03
2023-02-24T00:47:13.997Z,63.95
2023-02-24T00:49:43.274Z,61.67
2023-02-24T00:52:20.646Z,64.22
2023-02-24T00:54:50.238Z,61.95
2023-02-24T00:57:20.605Z,65.30
2023-02-24T00:59:48.737Z,60.65
2023-02-24T01:02:16.730Z,62.50
2023-02-24T01:04:46.579Z,60.83
2023-02-24T01:07:14.937Z,62.15
2023-02-24T01:09:44.479Z,62.20
2023-02-24T01:12:32.367Z,65.07
2023-02-24T01:15:03.275Z,63.58
2023-02-24T01:17:31.512Z,62.22
2023-02-24T01:20:15.995Z,64.40
2023-02-24T01:22:53.806Z,63.90
2023-02-24T01:25:21.853Z,63.30
2023-02-24T01:27:49.741Z,63.90
2023-02-24T01:30:18.655Z,64.10
2023-02-24T01:32:47.714Z,64.68
2023-02-24T01:35:16.038Z,64.70
2023-02-24T01:37:45.704Z,62.38
2023-02-24T01:40:21.166Z,62.25
2023-02-24T01:42:49.746Z,63.65
2023-02-24T01:45:22.034Z,62.97
2023-02-24T01:47:51.771Z,63.97
2023-02-24T01:50:21.977Z,60.65
2023-02-24T01:52:56.464Z,61.10
2023-02-24T01:55:32.646Z,63.33
2023-02-24T01:58:37.351Z,61.15
2023-02-24T02:01:09.576Z,61.78
2023-02-24T02:03:42.035Z,63.63
2023-02-24T02:06:14.255Z,61.33
2023-02-24T02:08:43.704Z,62.33
2023-02-24T02:11:23.189Z,61.15
2023-02-24T02:13:53.531Z,59.15
2023-02-24T02:16:39.419Z,59.97
2023-02-24T02:19:34.888Z,63.40
2023-02-24T02:22:27.175Z,61.90
2023-02-24T02:25:25.926Z,60.63
2023-02-24T02:28:15.237Z,61.50
2023-02-24T02:31:26.318Z,60.40
2023-02-24T02:34:17.191Z,59.33
2023-02-24T02:37:16.176Z,60.70
2023-02-24T02:39:47.048Z,59.03
2023-02-24T02:42:35.810Z,60.97
2023-02-24T02:45:21.040Z,59.33
2023-02-24T02:48:15.812Z,61.65
2023-02-24T02:50:58.204Z,59.95
2023-02-24T02:53:53.053Z,59.25
2023-02-24T02:56:37.773Z,61.30
2023-02-24T02:59:09.112Z,62.08
2023-02-24T03:01:44.198Z,62.40
2023-02-24T03:04:17.869Z,60.55
2023-02-24T03:06:59.649Z,60.60
2023-02-24T03:09:32.802Z,60.88
2023-02-24T03:12:09.371Z,60.92
2023-02-24T03:14:46.259Z,61.75
2023-02-24T03:17:22.383Z,59.42
2023-02-24T03:20:15.810Z,58.15
2023-02-24T03:22:55.051Z,60.53
2023-02-24T03:25:30.982Z,58.03
2023-02-24T03:28:07.104Z,58.22
2023-02-24T03:30:44.497Z,59.60
2023-02-24T03:33:45.582Z,58.78
2023-02-24T03:36:15.516Z,56.85
2023-02-24T03:38:44.393Z,56.80
2023-02-24T03:41:13.852Z,58.97
2023-02-24T03:43:46.571Z,59.92
2023-02-24T03:46:17.472Z,58.40
2023-02-24T03:48:52.953Z,59.40
2023-02-24T03:51:23.666Z,60.03
2023-02-24T03:54:06.714Z,59.45
2023-02-24T03:56:43.762Z,58.42
2023-02-24T03:59:23.994Z,55.72
2023-02-24T04:02:10.424Z,57.40
2023-02-24T04:04:55.558Z,58.65
2023-02-24T04:07:55.981Z,59.58
2023-02-24T04:10:52.824Z,58.25
2023-02-24T04:13:39.019Z,57.75
2023-02-24T04:16:36.657Z,56.17
2023-02-24T04:19:14.408Z,57.28
2023-02-24T04:21:45.849Z,57.35
2023-02-24T04:24:23.934Z,56.90
2023-02-24T04:26:53.882Z,58.47
2023-02-24T04:29:24.278Z,58.25
2023-02-24T04:31:59.338Z,57.58
2023-02-24T04:34:32.528Z,55.75
2023-02-24T04:37:02.553Z,57.72
2023-02-24T04:39:31.644Z,58.90
2023-02-24T04:42:01.895Z,59.35
2023-02-24T04:44:29.794Z,59.10
2023-02-24T04:46:58.674Z,61.03
2023-02-24T04:49:27.507Z,59.35
2023-02-24T04:51:57.540Z,57.88
2023-02-24T04:54:25.394Z,59.08
2023-02-24T04:56:54.496Z,59.20
2023-02-24T04:59:22.765Z,60.20
2023-02-24T05:01:55.141Z,59.17
2023-02-24T05:04:24.207Z,60.58
2023-02-24T05:06:52.161Z,58.58
2023-02-24T05:09:20.054Z,59.40
2023-02-24T05:11:49.851Z,58.90
2023-02-24T05:14:25.212Z,60.00
2023-02-24T05:16:53.295Z,56.65
2023-02-24T05:19:39.630Z,59.92
2023-02-24T05:22:07.681Z,58.10
2023-02-24T05:24:35.690Z,60.20
2023-02-24T05:27:04.087Z,62.60
2023-02-24T05:29:34.795Z,58.42
2023-02-24T05:32:04.932Z,58.08
2023-02-24T05:34:34.180Z,58.10
2023-02-24T05:37:10.939Z,59.63
2023-02-24T05:39:38.972Z,59.58
2023-02-24T05:42:07.361Z,59.33
2023-02-24T05:44:35.921Z,59.53
2023-02-24T05:47:05.854Z,58.38
2023-02-24T05:49:35.503Z,58.97
2023-02-24T05:52:10.328Z,59.63
2023-02-24T05:54:42.189Z,60.40
2023-02-24T05:57:12.210Z,63.25
2023-02-24T05:59:42.005Z,62.92
2023-02-24T06:02:13.874Z,63.55
2023-02-24T06:04:54.280Z,64.63
2023-02-24T06:07:25.213Z,64.30
2023-02-24T06:09:58.785Z,64.60
2023-02-24T06:12:34.059Z,68.30
2023-02-24T06:15:08.211Z,65.28
2023-02-24T06:17:36.247Z,65.60
2023-02-24T06:20:14.110Z,63.42
2023-02-24T06:22:42.704Z,63.72
2023-02-24T06:25:14.319Z,62.72
2023-02-24T06:27:43.306Z,60.50
2023-02-24T06:30:11.988Z,62.47
2023-02-24T06:32:40.356Z,61.05
2023-02-24T06:35:09.632Z,60.70
2023-02-24T06:37:37.595Z,62.40
2023-02-24T06:40:16.052Z,62.00
2023-02-24T06:42:49.917Z,62.28
2023-02-24T06:45:17.965Z,61.75
2023-02-24T06:47:49.336Z,63.20
2023-02-24T06:50:21.985Z,63.90
2023-02-24T06:52:50.956Z,63.42
2023-02-24T06:55:27.970Z,64.55
2023-02-24T06:57:59.042Z,63.13
2023-02-24T07:00:38.898Z,63.40
2023-02-24T07:03:20.959Z,66.05
2023-02-24T07:06:11.378Z,61.88
2023-02-24T07:08:39.320Z,62.05
2023-02-24T07:11:08.120Z,64.28
2023-02-24T07:13:36.993Z,62.28
2023-02-24T07:16:07.480Z,65.13
2023-02-24T07:18:42.016Z,62.42
2023-02-24T07:21:12.910Z,63.85
2023-02-24T07:23:42.289Z,62.85
2023-02-24T07:26:13.055Z,62.53
2023-02-24T07:28:43.916Z,62.60
2023-02-24T07:31:15.309Z,64.70
2023-02-24T07:33:45.407Z,64.15
2023-02-24T07:36:15.385Z,62.97
2023-02-24T07:38:44.062Z,63.92
2023-02-24T07:41:15.549Z,62.85
2023-02-24T07:43:44.333Z,63.03
2023-02-24T07:46:14.779Z,63.60
2023-02-24T07:48:43.132Z,64.65
2023-02-24T07:51:17.205Z,60.05
2023-02-24T07:53:52.292Z,63.72
2023-02-24T07:56:27.499Z,61.38
2023-02-24T07:58:59.771Z,60.63
2023-02-24T08:01:30.712Z,61.57
2023-02-24T08:04:10.728Z,58.38
2023-02-24T08:06:46.838Z,62.60
2023-02-24T08:09:19.291Z,61.20
2023-02-24T08:11:52.474Z,62.40
2023-02-24T08:14:23.741Z,65.28
2023-02-24T08:16:59.742Z,74.82
2023-02-24T08:19:39.749Z,78.22
2023-02-24T08:22:24.490Z,74.57
2023-02-24T08:25:00.964Z,73.43
2023-02-24T08:27:30.606Z,66.60
2023-02-24T08:30:00.291Z,69.13
2023-02-24T08:32:44.055Z,69.25
2023-02-24T08:35:18.037Z,67.38
2023-02-24T08:37:47.327Z,68.05
2023-02-24T08:40:34.773Z,70.90
2023-02-24T08:43:19.662Z,65.70
2023-02-24T08:45:51.244Z,66.03
2023-02-24T08:48:38.826Z,66.22
2023-02-24T08:51:30.197Z,65.35
2023-02-24T08:54:01.421Z,64.32
2023-02-24T08:56:35.233Z,65.30
2023-02-24T08:59:06.156Z,65.95
2023-02-24T09:01:37.621Z,66.10
2023-02-24T09:04:11.288Z,65.15
2023-02-24T09:06:44.475Z,66.68
2023-02-24T09:09:23.844Z,68.95
2023-02-24T09:11:57.557Z,68.78
2023-02-24T09:14:36.766Z,68.07
2023-02-24T09:17:11.573Z,70.45
2023-02-24T09:19:52.124Z,75.15
2023-02-24T09:22:32.116Z,77.18
2023-02-24T09:25:22.052Z,80.03
2023-02-24T09:27:57.296Z,79.78
2023-02-24T09:30:37.706Z,80.80
2023-02-24T09:33:08.931Z,81.65
2023-02-24T09:35:42.172Z,81.55
2023-02-24T09:40:40.160Z,77.80
2023-02-24T09:43:28.360Z,76.75
2023-02-24T09:46:15.133Z,77.45
2023-02-24T09:49:08.191Z,76.88
2023-02-24T09:51:42.781Z,73.78
2023-02-24T09:54:20.523Z,76.03
2023-02-24T09:57:08.740Z,72.97
2023-02-24T09:59:51.348Z,69.93
2023-02-24T10:03:00.511Z,72.33
2023-02-24T10:05:49.143Z,65.97
2023-02-24T10:08:26.747Z,66.50
2023-02-24T10:11:09.597Z,66.13
2023-02-24T10:13:52.211Z,67.50
2023-02-24T10:16:26.509Z,64.25
2023-02-24T10:19:16.872Z,65.32
2023-02-24T10:22:03.437Z,63.13
2023-02-24T10:24:48.749Z,62.30
2023-02-24T10:27:27.274Z,63.75
2023-02-24T10:30:27.833Z,62.60
2023-02-24T10:32:59.167Z,61.10
2023-02-24T10:35:33.978Z,63.90
2023-02-24T10:38:06.714Z,61.95
2023-02-24T10:40:47.099Z,64.00
2023-02-24T10:43:20.635Z,60.17
2023-02-24T10:45:48.842Z,59.83
2023-02-24T10:48:40.760Z,60.30
2023-02-24T10:51:32.099Z,62.43
2023-02-24T10:54:39.763Z,60.92
2023-02-24T10:57:38.326Z,62.65
2023-02-24T11:00:18.814Z,61.80
2023-02-24T11:03:10.137Z,61.45
2023-02-24T11:06:04.400Z,59.70
2023-02-24T11:08:40.034Z,61.60
2023-02-24T11:11:25.805Z,60.78
2023-02-24T11:14:14.286Z,59.03
2023-02-24T11:17:13.311Z,60.15
2023-02-24T11:20:01.587Z,58.42
2023-02-24T11:22:37.973Z,59.17
2023-02-24T11:25:14.360Z,59.08
2023-02-24T11:27:44.069Z,57.47
2023-02-24T11:30:50.498Z,58.45
2023-02-24T11:33:47.578Z,57.42
2023-02-24T11:36:45.603Z,57.70
2023-02-24T11:39:43.062Z,57.50
2023-02-24T11:42:22.083Z,58.67
2023-02-24T11:45:09.530Z,57.72
2023-02-24T11:47:50.481Z,57.63
2023-02-24T11:50:39.896Z,56.95
2023-02-24T11:53:17.491Z,56.83
2023-02-24T11:55:51.799Z,52.47
2023-02-24T11:58:50.922Z,52.72
2023-02-24T12:01:30.909Z,54.67
2023-02-24T12:04:30.663Z,56.05
2023-02-24T12:07:09.999Z,53.95
2023-02-24T12:10:15.967Z,53.85
2023-02-24T12:12:53.551Z,52.67
2023-02-24T12:15:34.330Z,56.25
2023-02-24T12:18:36.448Z,55.28
2023-02-24T12:21:13.609Z,55.50
2023-02-24T12:23:44.900Z,52.60
2023-02-24T12:26:30.727Z,54.88
2023-02-24T12:29:16.738Z,55.30
2023-02-24T12:32:11.167Z,56.22
2023-02-24T12:35:08.789Z,54.25
2023-02-24T12:38:06.702Z,53.53
2023-02-24T12:41:06.434Z,52.42
2023-02-24T12:43:57.317Z,50.58
2023-02-24T12:46:31.129Z,48.45
2023-02-24T12:49:04.776Z,50.15
2023-02-24T12:51:42.187Z,48.28
2023-02-24T12:54:12.917Z,50.92
2023-02-24T12:57:00.183Z,48.90
2023-02-24T12:59:32.442Z,50.45
2023-02-24T13:02:42.709Z,49.08
2023-02-24T13:05:24.716Z,48.00
2023-02-24T13:08:09.697Z,50.78
2023-02-24T13:10:55.395Z,48.70
2023-02-24T13:14:08.169Z,48.92
2023-02-24T13:16:36.913Z,45.95
2023-02-24T13:19:19.702Z,48.95
2023-02-24T13:22:04.058Z,45.40
2023-02-24T13:24:32.366Z,44.90
2023-02-24T13:27:25.928Z,44.47
2023-02-24T13:29:57.684Z,46.38
2023-02-24T13:32:46.183Z,46.03
2023-02-24T13:35:14.215Z,45.35
2023-02-24T13:37:45.566Z,47.17
2023-02-24T13:40:19.259Z,47.70
2023-02-24T13:43:01.839Z,46.55
2023-02-24T13:45:36.547Z,45.67
2023-02-24T13:48:37.542Z,47.80
2023-02-24T13:51:05.387Z,45.97
2023-02-24T13:54:24.570Z,47.65
2023-02-24T13:57:24.912Z,45.13
2023-02-24T14:00:10.789Z,42.85
2023-02-24T14:02:44.465Z,42.38
2023-02-24T14:05:25.383Z,40.90
2023-02-24T14:07:55.180Z,42.30
2023-02-24T14:10:26.364Z,40.28
2023-02-24T14:13:13.394Z,41.83
2023-02-24T14:15:45.145Z,42.38
2023-02-24T14:18:39.321Z,43.35
2023-02-24T14:21:07.295Z,40.58
2023-02-24T14:23:35.551Z,39.15
2023-02-24T14:26:08.226Z,41.13
2023-02-24T14:28:38.387Z,40.67
2023-02-24T14:31:13.455Z,38.95
2023-02-24T14:33:44.640Z,39.83
2023-02-24T14:36:24.417Z,39.95
2023-02-24T14:39:17.354Z,39.28
2023-02-24T14:41:47.777Z,39.03
2023-02-24T14:44:19.109Z,39.63
2023-02-24T14:46:49.598Z,40.13
2023-02-24T14:49:21.638Z,41.85
2023-02-24T14:51:55.189Z,41.58
2023-02-24T14:54:54.512Z,40.85
2023-02-24T14:57:28.551Z,40.55
2023-02-24T15:00:24.449Z,41.25
2023-02-24T15:02:55.648Z,40.88
2023-02-24T15:05:23.888Z,41.50
2023-02-24T15:07:52.159Z,41.70
2023-02-24T15:10:27.825Z,42.28
2023-02-24T15:13:37.224Z,42.10
2023-02-24T15:16:28.005Z,41.50
2023-02-24T15:19:01.155Z,41.70
2023-02-24T15:21:34.676Z,42.10
2023-02-24T15:27:00.015Z,41.20
2023-02-24T15:29:30.979Z,42.35
2023-02-24T15:32:01.071Z,40.80
2023-02-24T15:34:37.022Z,41.65
2023-02-24T15:37:22.990Z,41.92
2023-02-24T15:39:57.629Z,41.60
2023-02-24T15:42:32.009Z,42.22
2023-02-24T15:45:01.382Z,42.20
2023-02-24T15:47:43.609Z,42.00
2023-02-24T15:50:13.156Z,43.33
2023-02-24T15:52:42.019Z,44.03
2023-02-24T15:55:17.056Z,43.75
2023-02-24T15:57:46.446Z,42.50
2023-02-24T16:00:18.612Z,43.15
2023-02-24T16:05:15.868Z,38.95
2023-02-24T16:08:14.134Z,40.75
2023-02-24T16:10:42.125Z,39.90
2023-02-24T16:13:19.169Z,40.95
2023-02-24T16:15:47.258Z,42.30
2023-02-24T16:18:22.185Z,40.85
2023-02-24T16:20:55.571Z,41.00
2023-02-24T16:23:25.952Z,41.40
2023-02-24T16:26:00.319Z,41.38
2023-02-24T16:28:28.406Z,39.78
2023-02-24T16:30:56.379Z,41.30
2023-02-24T16:33:24.555Z,41.63
2023-02-24T16:35:55.762Z,40.58
2023-02-24T16:38:27.116Z,40.70
2023-02-24T16:40:56.083Z,40.60
2023-02-24T16:43:24.977Z,40.22
2023-02-24T16:45:55.604Z,40.40
2023-02-24T16:48:27.004Z,40.42
2023-02-24T16:50:55.435Z,41.20
2023-02-24T16:53:24.555Z,40.90
2023-02-24T16:55:53.105Z,41.47
2023-02-24T16:58:21.105Z,40.58
2023-02-24T17:00:50.887Z,42.95
2023-02-24T17:03:45.399Z,42.10
2023-02-24T17:06:13.490Z,42.08
2023-02-24T17:08:44.356Z,43.70
2023-02-24T17:11:18.887Z,44.72
2023-02-24T17:13:46.710Z,42.85
2023-02-24T17:16:14.621Z,43.63
2023-02-24T17:18:42.637Z,43.30
2023-02-24T17:21:14.202Z,44.17
2023-02-24T17:23:45.076Z,47.25
2023-02-24T17:26:16.233Z,48.88
2023-02-24T17:28:44.311Z,46.60
2023-02-24T17:31:12.664Z,48.88
2023-02-24T17:33:41.761Z,44.13
2023-02-24T17:36:09.812Z,42.70
2023-02-24T17:38:38.156Z,41.67
2023-02-24T17:41:06.274Z,43.08
2023-02-24T17:43:34.340Z,43.85
2023-02-24T17:46:05.776Z,48.88
2023-02-24T17:48:35.335Z,44.10
2023-02-24T17:51:03.295Z,47.17
2023-02-24T17:53:32.295Z,49.28
2023-02-24T17:56:07.194Z,48.10
2023-02-24T17:58:35.695Z,44.70
2023-02-24T18:01:05.845Z,46.05
2023-02-24T18:03:35.604Z,45.92
2023-02-24T18:06:06.655Z,46.70
2023-02-24T18:08:35.427Z,44.10
2023-02-24T18:11:05.215Z,45.47
2023-02-24T18:13:34.013Z,45.35
2023-02-24T18:16:02.189Z,44.65
2023-02-24T18:18:30.542Z,44.78
2023-02-24T18:21:02.774Z,48.70
2023-02-24T18:23:30.909Z,47.10
2023-02-24T18:26:04.194Z,45.55
2023-02-24T18:28:33.571Z,47.50
2023-02-24T18:31:03.636Z,48.55
2023-02-24T18:33:31.796Z,46.95
2023-02-24T18:36:00.579Z,46.15
2023-02-24T18:38:28.889Z,47.92
2023-02-24T18:40:59.180Z,47.65
2023-02-24T18:43:27.630Z,49.35
2023-02-24T18:46:00.950Z,48.42
2023-02-24T18:50:59.484Z,49.03
2023-02-24T18:53:32.275Z,48.22
2023-02-24T18:56:02.242Z,47.40
2023-02-24T18:58:30.959Z,47.72
2023-02-24T19:01:00.161Z,47.10
2023-02-24T19:03:28.253Z,48.10
2023-02-24T19:05:56.194Z,50.60
2023-02-24T19:08:24.153Z,49.63
2023-02-24T19:10:52.149Z,47.95
2023-02-24T19:13:20.124Z,50.13
2023-02-24T19:15:48.593Z,48.78
2023-02-24T19:18:17.316Z,50.00
2023-02-24T19:20:45.241Z,49.85
2023-02-24T19:23:13.247Z,50.72
2023-02-24T19:25:41.215Z,50.17
2023-02-24T19:28:09.169Z,50.08
2023-02-24T19:30:39.865Z,51.22
2023-02-24T19:33:08.079Z,52.38
2023-02-24T19:35:41.116Z,51.33
2023-02-24T19:38:13.500Z,51.85
2023-02-24T19:40:41.921Z,52.40
2023-02-24T19:43:10.154Z,52.10
2023-02-24T19:45:44.205Z,52.20
2023-02-24T19:48:12.216Z,53.35
2023-02-24T19:50:41.446Z,51.83
2023-02-24T19:53:09.677Z,53.45
2023-02-24T19:55:37.820Z,53.85
2023-02-24T19:58:05.790Z,51.38
2023-02-24T20:00:33.686Z,54.47
2023-02-24T20:03:01.747Z,51.08
2023-02-24T20:05:29.620Z,53.95
2023-02-24T20:07:58.069Z,51.08
2023-02-24T20:10:25.941Z,51.50
2023-02-24T20:12:54.981Z,51.65
2023-02-24T20:15:22.899Z,53.20
2023-02-24T20:17:50.880Z,52.88
2023-02-24T20:20:18.846Z,52.65
2023-02-24T20:22:46.821Z,50.78
2023-02-24T20:25:15.649Z,51.83
2023-02-24T20:27:43.681Z,52.20
2023-02-24T20:30:12.373Z,53.28
2023-02-24T20:32:40.406Z,51.40
2023-02-24T20:35:10.841Z,52.33
2023-02-24T20:37:38.908Z,53.95
2023-02-24T20:40:07.463Z,50.95
2023-02-24T20:42:35.410Z,52.60
2023-02-24T20:45:03.508Z,53.50
2023-02-24T20:47:31.469Z,55.67
2023-02-24T20:50:00.109Z,54.63
2023-02-24T20:52:28.230Z,56.20
2023-02-24T20:54:56.131Z,54.38
2023-02-24T20:57:24.203Z,52.47
2023-02-24T21:00:03.099Z,52.58
2023-02-24T21:02:31.759Z,54.70
2023-02-24T21:04:59.764Z,55.25
2023-02-24T21:07:27.690Z,54.35
2023-02-24T21:09:55.651Z,54.90
2023-02-24T21:12:23.938Z,54.58
2023-02-24T21:14:51.780Z,54.78
2023-02-24T21:17:19.813Z,54.92
2023-02-24T21:19:47.792Z,53.78
2023-02-24T21:22:15.735Z,54.78
2023-02-24T21:24:44.167Z,54.72
2023-02-24T21:27:12.050Z,55.47
2023-02-24T21:29:40.138Z,55.88
2023-02-24T21:32:08.206Z,54.22
2023-02-24T21:34:36.138Z,55.05
2023-02-24T21:37:06.187Z,54.88
2023-02-24T21:39:34.196Z,55.15
2023-02-24T21:42:02.061Z,53.78
2023-02-24T21:44:29.805Z,53.97
2023-02-24T21:46:57.691Z,55.45
2023-02-24T21:49:26.712Z,56.00
2023-02-24T21:51:55.483Z,56.17
2023-02-24T21:54:23.697Z,54.95
2023-02-24T21:56:51.564Z,54.90
2023-02-24T21:59:19.455Z,52.78
2023-02-24T22:01:47.466Z,55.33
2023-02-24T22:04:19.178Z,54.55
2023-02-24T22:06:47.434Z,56.53
2023-02-24T22:09:19.952Z,57.17
2023-02-24T22:11:49.660Z,56.22
2023-02-24T22:14:17.907Z,56.70
2023-02-24T22:16:45.905Z,55.88
2023-02-24T22:19:14.255Z,56.67
2023-02-24T22:21:42.706Z,56.05
2023-02-24T22:24:16.316Z,55.78
2023-02-24T22:26:45.214Z,56.17
2023-02-24T22:29:13.136Z,56.40
2023-02-24T22:31:43.915Z,56.90
2023-02-24T22:34:13.487Z,57.08
2023-02-24T22:36:41.337Z,57.85
2023-02-24T22:39:09.540Z,56.85
2023-02-24T22:41:38.368Z,56.60
2023-02-24T22:44:06.446Z,56.05
2023-02-24T22:46:37.378Z,53.35
2023-02-24T22:49:05.667Z,56.28
2023-02-24T22:51:33.550Z,55.30
2023-02-24T22:54:01.430Z,55.10
2023-02-24T22:56:30.319Z,56.05
2023-02-24T22:58:59.132Z,56.80
2023-02-24T23:01:30.231Z,55.30
2023-02-24T23:04:09.101Z,54.33
2023-02-24T23:06:37.248Z,55.85
2023-02-24T23:09:06.575Z,55.45
2023-02-24T23:11:38.920Z,55.03
2023-02-24T23:14:10.281Z,56.90
2023-02-24T23:16:38.999Z,55.20
2023-02-24T23:19:12.335Z,53.38
2023-02-24T23:24:11.229Z,53.13
2023-02-24T23:26:41.029Z,56.70
2023-02-24T23:29:11.095Z,58.00
2023-02-24T23:31:39.396Z,56.30
2023-02-24T23:34:07.798Z,55.55
2023-02-24T23:36:37.938Z,55.60
2023-02-24T23:39:07.108Z,56.67
2023-02-24T23:41:36.184Z,56.92
2023-02-24T23:44:05.579Z,57.17
2023-02-24T23:46:35.082Z,57.58
2023-02-24T23:49:03.952Z,59.30
2023-02-24T23:51:47.041Z,58.53
2023-02-24T23:54:19.222Z,60.47
2023-02-24T23:56:47.274Z,61.88
2023-02-24T23:59:15.603Z,58.13
